Time;durP1;ratioP1;P1;durP2;ratioP2;P2;SDS_P1;SDS_P2;PMS_P1;PMS_P2;Temp;Humidity;BMP_temperature;BMP_pressure;BME280_temperature;BME280_humidity;BME280_pressure;Samples;Min_cycle;Max_cycle;Signal;HPM_P1;HPM_P2
2021/06/28 00:02:06;;;;;;;25.33;23.60;;;;;;;;;;4995660;28;20404;-95
2021/06/28 00:04:33;;;;;;;25.33;23.93;;;;;;;;;;4995128;28;20959;-95
2021/06/28 00:07:02;;;;;;;25.70;24.20;;;;;;;;;;4995457;28;20411;-95
2021/06/28 00:09:29;;;;;;;25.27;23.67;;;;;;;;;;4995196;28;20902;-95
2021/06/28 00:11:57;;;;;;;25.70;23.80;;;;;;;;;;4995175;28;20428;-95
2021/06/28 00:14:24;;;;;;;24.70;23.20;;;;;;;;;;4977987;28;20430;-95
2021/06/28 00:16:52;;;;;;;25.10;23.63;;;;;;;;;;4995265;28;20419;-95
2021/06/28 00:19:19;;;;;;;25.13;23.63;;;;;;;;;;4978463;28;20418;-95
2021/06/28 00:21:46;;;;;;;24.80;23.40;;;;;;;;;;4995273;28;20489;-95
2021/06/28 00:24:15;;;;;;;25.57;24.00;;;;;;;;;;4978197;28;20423;-95
2021/06/28 00:26:43;;;;;;;26.67;25.07;;;;;;;;;;4995481;28;20430;-95
2021/06/28 00:29:10;;;;;;;25.70;24.20;;;;;;;;;;4995169;28;20442;-94
2021/06/28 00:31:38;;;;;;;27.37;25.70;;;;;;;;;;4995340;28;20423;-95
2021/06/28 00:34:06;;;;;;;26.37;24.83;;;;;;;;;;4995069;28;20441;-95
2021/06/28 00:36:33;;;;;;;25.20;23.70;;;;;;;;;;4994934;28;20890;-95
2021/06/28 00:39:01;;;;;;;25.83;24.23;;;;;;;;;;4995140;28;20438;-95
2021/06/28 00:41:30;;;;;;;25.53;24.03;;;;;;;;;;4994743;28;20463;-95
2021/06/28 00:43:57;;;;;;;26.97;25.37;;;;;;;;;;4995598;28;20465;-95
2021/06/28 00:46:24;;;;;;;25.60;24.00;;;;;;;;;;4994862;28;20449;-95
2021/06/28 00:48:52;;;;;;;25.50;23.70;;;;;;;;;;4995019;28;20416;-95
2021/06/28 00:51:19;;;;;;;26.53;24.93;;;;;;;;;;4994855;28;20460;-96
2021/06/28 00:53:47;;;;;;;26.03;24.53;;;;;;;;;;4994724;28;20424;-95
2021/06/28 00:56:14;;;;;;;26.83;25.17;;;;;;;;;;4994947;28;20434;-95
2021/06/28 00:58:44;;;;;;;26.90;25.30;;;;;;;;;;4995127;28;20453;-95
2021/06/28 01:01:12;;;;;;;26.83;25.27;;;;;;;;;;4994653;28;21001;-95
2021/06/28 01:03:40;;;;;;;27.20;25.60;;;;;;;;;;4994905;28;20548;-95
2021/06/28 01:06:10;;;;;;;26.40;24.60;;;;;;;;;;4994812;28;20419;-95
2021/06/28 01:08:38;;;;;;;26.67;24.97;;;;;;;;;;4994658;28;20444;-95
2021/06/28 01:11:05;;;;;;;26.07;24.27;;;;;;;;;;4994994;28;20419;-95
2021/06/28 01:13:33;;;;;;;26.17;24.57;;;;;;;;;;4977837;28;20449;-96
2021/06/28 01:16:02;;;;;;;26.67;25.07;;;;;;;;;;4977412;28;20980;-95
2021/06/28 01:18:30;;;;;;;26.13;24.53;;;;;;;;;;4994705;28;20415;-95
2021/06/28 01:20:59;;;;;;;26.00;24.50;;;;;;;;;;4994968;28;20496;-95
2021/06/28 01:23:29;;;;;;;26.13;24.20;;;;;;;;;;4994866;28;20423;-95
2021/06/28 01:25:58;;;;;;;28.80;26.50;;;;;;;;;;4998243;28;20415;-94
2021/06/28 01:28:25;;;;;;;27.60;25.90;;;;;;;;;;4998341;28;20495;-95
2021/06/28 01:30:53;;;;;;;29.23;27.43;;;;;;;;;;4981179;28;20787;-94
2021/06/28 01:33:20;;;;;;;30.40;28.50;;;;;;;;;;4998806;28;20426;-94
2021/06/28 01:35:49;;;;;;;30.43;28.47;;;;;;;;;;4998576;28;20415;-94
2021/06/28 01:38:16;;;;;;;30.57;28.70;;;;;;;;;;4998577;28;20934;-94
2021/06/28 01:40:46;;;;;;;29.33;27.30;;;;;;;;;;4981325;28;20817;-95
2021/06/28 01:43:14;;;;;;;27.77;26.07;;;;;;;;;;4998348;28;20440;-94
2021/06/28 01:45:41;;;;;;;29.50;27.47;;;;;;;;;;4998612;28;20457;-94
2021/06/28 01:48:09;;;;;;;29.87;28.07;;;;;;;;;;4998362;28;20424;-94
2021/06/28 01:50:37;;;;;;;29.87;27.97;;;;;;;;;;4998249;28;20465;-94
2021/06/28 01:53:05;;;;;;;28.67;26.93;;;;;;;;;;4981086;28;20426;-94
2021/06/28 01:55:33;;;;;;;29.93;28.03;;;;;;;;;;4997945;28;20420;-94
2021/06/28 01:58:03;;;;;;;28.90;27.07;;;;;;;;;;4997988;28;20450;-94
2021/06/28 02:00:32;;;;;;;30.23;28.10;;;;;;;;;;4998144;28;20459;-95
2021/06/28 02:03:00;;;;;;;29.00;27.20;;;;;;;;;;4997703;28;20419;-94
2021/06/28 02:05:28;;;;;;;29.00;27.20;;;;;;;;;;4997917;28;20442;-94
2021/06/28 02:07:56;;;;;;;27.90;26.30;;;;;;;;;;4998185;28;20471;-94
2021/06/28 02:10:23;;;;;;;28.17;26.43;;;;;;;;;;4997879;28;20430;-94
2021/06/28 02:12:51;;;;;;;27.53;25.93;;;;;;;;;;4997817;28;20431;-94
2021/06/28 02:15:20;;;;;;;29.00;27.30;;;;;;;;;;4998066;28;20914;-94
2021/06/28 02:17:47;;;;;;;27.50;25.80;;;;;;;;;;4997787;28;20426;-95
2021/06/28 02:20:15;;;;;;;26.57;24.87;;;;;;;;;;4997659;28;20443;-95
2021/06/28 02:22:43;;;;;;;25.17;23.77;;;;;;;;;;4997304;28;20419;-94
2021/06/28 02:25:11;;;;;;;26.77;25.27;;;;;;;;;;4998235;28;20463;-94
2021/06/28 02:27:38;;;;;;;25.77;24.23;;;;;;;;;;4980215;28;20460;-94
2021/06/28 02:30:08;;;;;;;26.40;24.70;;;;;;;;;;4997177;28;20460;-95
2021/06/28 02:32:37;;;;;;;26.00;24.30;;;;;;;;;;4997139;28;20459;-94
2021/06/28 02:35:05;;;;;;;25.33;23.83;;;;;;;;;;4979596;28;20451;-95
2021/06/28 02:37:33;;;;;;;25.80;24.30;;;;;;;;;;4996961;28;20448;-95
2021/06/28 02:40:00;;;;;;;26.50;24.90;;;;;;;;;;4997238;28;20494;-94
2021/06/28 02:42:27;;;;;;;25.17;23.77;;;;;;;;;;4996626;28;20500;-95
2021/06/28 02:44:55;;;;;;;24.73;23.30;;;;;;;;;;4997128;28;20466;-94
2021/06/28 02:47:22;;;;;;;25.43;23.93;;;;;;;;;;4997536;28;20452;-94
2021/06/28 02:49:51;;;;;;;25.80;24.30;;;;;;;;;;4996848;28;20431;-94
2021/06/28 02:52:18;;;;;;;24.30;22.90;;;;;;;;;;4996556;28;20467;-94
2021/06/28 02:54:46;;;;;;;25.20;23.43;;;;;;;;;;4996764;28;20423;-95
2021/06/28 02:57:13;;;;;;;24.63;23.23;;;;;;;;;;4997060;28;20414;-94
2021/06/28 02:59:41;;;;;;;25.07;23.60;;;;;;;;;;4997208;28;20519;-95
2021/06/28 03:02:08;;;;;;;25.13;23.63;;;;;;;;;;4980309;28;20817;-94
2021/06/28 03:04:35;;;;;;;25.30;23.87;;;;;;;;;;4979422;28;20456;-94
2021/06/28 03:07:05;;;;;;;24.60;23.20;;;;;;;;;;4996970;28;20438;-95
2021/06/28 03:09:32;;;;;;;23.93;22.53;;;;;;;;;;4996714;28;20892;-94
2021/06/28 03:11:59;;;;;;;24.73;23.33;;;;;;;;;;4996770;28;20930;-95
2021/06/28 03:14:27;;;;;;;24.80;23.47;;;;;;;;;;4996805;28;20775;-95
2021/06/28 03:16:54;;;;;;;25.60;24.17;;;;;;;;;;4996463;28;20892;-94
2021/06/28 03:19:22;;;;;;;25.57;24.07;;;;;;;;;;4996526;28;20422;-95
2021/06/28 03:21:49;;;;;;;24.20;22.80;;;;;;;;;;4996237;28;20997;-94
2021/06/28 03:24:18;;;;;;;22.97;21.67;;;;;;;;;;4996676;28;20466;-94
2021/06/28 03:26:46;;;;;;;23.43;22.03;;;;;;;;;;4979164;28;20517;-94
2021/06/28 03:29:13;;;;;;;22.83;21.53;;;;;;;;;;4996239;28;20423;-94
2021/06/28 03:31:40;;;;;;;25.50;23.90;;;;;;;;;;4996340;28;20418;-94
2021/06/28 03:34:08;;;;;;;23.97;22.63;;;;;;;;;;4979176;28;20810;-94
2021/06/28 03:36:35;;;;;;;25.00;23.40;;;;;;;;;;4996065;28;20418;-94
2021/06/28 03:39:03;;;;;;;24.77;23.30;;;;;;;;;;4978947;28;20475;-95
2021/06/28 03:41:32;;;;;;;25.30;23.80;;;;;;;;;;4995791;28;20487;-95
2021/06/28 03:44:00;;;;;;;25.23;23.73;;;;;;;;;;4996156;28;20422;-94
2021/06/28 03:46:28;;;;;;;23.70;22.40;;;;;;;;;;4995477;28;20437;-94
2021/06/28 03:48:55;;;;;;;24.47;23.07;;;;;;;;;;4978387;28;20435;-94
2021/06/28 03:51:23;;;;;;;23.80;22.40;;;;;;;;;;4995838;28;20480;-95
2021/06/28 03:53:51;;;;;;;24.90;23.30;;;;;;;;;;4995821;28;20403;-94
2021/06/28 03:56:19;;;;;;;24.30;22.90;;;;;;;;;;4995611;28;20437;-95
2021/06/28 03:58:48;;;;;;;23.60;21.90;;;;;;;;;;4995753;28;20799;-94
2021/06/28 04:01:15;;;;;;;25.20;23.70;;;;;;;;;;4995549;28;20457;-94
2021/06/28 04:03:43;;;;;;;24.77;23.33;;;;;;;;;;4995644;28;20483;-94
2021/06/28 04:06:10;;;;;;;25.07;23.57;;;;;;;;;;4996178;28;20479;-95
2021/06/28 04:08:38;;;;;;;25.40;24.00;;;;;;;;;;4995481;28;20417;-95
2021/06/28 04:11:06;;;;;;;25.37;23.90;;;;;;;;;;4995549;28;20444;-94
2021/06/28 04:13:33;;;;;;;24.47;23.00;;;;;;;;;;4996003;28;20451;-94
2021/06/28 04:16:02;;;;;;;23.80;22.47;;;;;;;;;;4995380;28;20407;-95
2021/06/28 04:18:29;;;;;;;24.13;22.67;;;;;;;;;;4995136;28;20443;-94
2021/06/28 04:20:57;;;;;;;22.77;21.47;;;;;;;;;;4995342;28;20418;-87
2021/06/28 04:23:24;;;;;;;22.33;20.90;;;;;;;;;;4995319;28;20443;-87
2021/06/28 04:25:52;;;;;;;22.30;21.10;;;;;;;;;;4995255;28;20414;-90
2021/06/28 04:28:19;;;;;;;23.27;21.83;;;;;;;;;;4995314;28;20535;-95
2021/06/28 04:30:46;;;;;;;24.20;22.70;;;;;;;;;;4995415;28;20489;-95
2021/06/28 04:33:15;;;;;;;25.00;23.70;;;;;;;;;;4995258;28;20418;-88
2021/06/28 04:35:43;;;;;;;25.83;24.17;;;;;;;;;;4994963;28;20415;-87
2021/06/28 04:38:11;;;;;;;24.00;22.57;;;;;;;;;;4995136;28;20460;-88
2021/06/28 04:40:38;;;;;;;24.60;23.20;;;;;;;;;;4994810;28;20465;-88
2021/06/28 04:43:06;;;;;;;24.90;23.40;;;;;;;;;;4995051;28;20832;-88
2021/06/28 04:45:33;;;;;;;23.30;22.00;;;;;;;;;;4995042;28;20781;-88
2021/06/28 04:48:00;;;;;;;27.07;25.47;;;;;;;;;;4994973;28;20897;-88
2021/06/28 04:50:29;;;;;;;25.23;23.83;;;;;;;;;;4994881;28;20442;-87
2021/06/28 04:52:57;;;;;;;25.30;23.90;;;;;;;;;;4994998;28;20430;-88
2021/06/28 04:55:25;;;;;;;24.40;23.10;;;;;;;;;;4994625;28;20459;-88
2021/06/28 04:57:55;;;;;;;24.63;23.23;;;;;;;;;;4995277;28;20438;-88
2021/06/28 05:00:25;;;;;;;23.77;22.47;;;;;;;;;;4998238;28;20501;-88
2021/06/28 05:02:52;;;;;;;26.17;24.57;;;;;;;;;;4998460;28;20480;-87
2021/06/28 05:05:20;;;;;;;25.47;23.97;;;;;;;;;;4998691;28;20419;-88
2021/06/28 05:07:49;;;;;;;25.70;24.20;;;;;;;;;;4998982;28;20770;-88
2021/06/28 05:10:17;;;;;;;25.30;23.90;;;;;;;;;;4998325;28;20459;-88
2021/06/28 05:12:45;;;;;;;24.80;23.17;;;;;;;;;;4998871;28;20452;-88
2021/06/28 05:15:14;;;;;;;24.00;22.60;;;;;;;;;;4998701;28;20877;-88
2021/06/28 05:17:41;;;;;;;24.47;22.97;;;;;;;;;;4998662;28;20417;-88
2021/06/28 05:20:10;;;;;;;23.00;21.80;;;;;;;;;;4998771;28;20827;-87
2021/06/28 05:22:37;;;;;;;23.87;22.47;;;;;;;;;;4998650;28;20468;-88
2021/06/28 05:25:07;;;;;;;24.00;22.70;;;;;;;;;;4998162;28;20438;-88
2021/06/28 05:27:34;;;;;;;23.70;22.30;;;;;;;;;;4998414;28;20919;-88
2021/06/28 05:30:03;;;;;;;23.87;22.50;;;;;;;;;;4998347;28;20440;-88
2021/06/28 05:32:31;;;;;;;23.20;21.90;;;;;;;;;;4998185;28;20499;-87
2021/06/28 05:34:58;;;;;;;25.00;23.40;;;;;;;;;;4998440;28;20412;-88
2021/06/28 05:37:26;;;;;;;26.27;24.77;;;;;;;;;;4998035;28;20460;-88
2021/06/28 05:39:53;;;;;;;23.67;22.37;;;;;;;;;;4998222;28;20530;-88
2021/06/28 05:42:22;;;;;;;25.47;23.87;;;;;;;;;;4998173;28;20466;-88
2021/06/28 05:44:49;;;;;;;23.70;22.50;;;;;;;;;;4998230;28;20447;-87
2021/06/28 05:47:21;;;;;;;23.60;22.30;;;;;;;;;;4998267;28;20419;-88
2021/06/28 05:49:49;;;;;;;25.50;23.90;;;;;;;;;;4998112;28;20552;-88
2021/06/28 05:52:19;;;;;;;23.83;22.43;;;;;;;;;;4998063;28;20449;-88
2021/06/28 05:54:46;;;;;;;24.63;23.23;;;;;;;;;;4997856;28;20445;-88
2021/06/28 05:57:14;;;;;;;24.13;22.83;;;;;;;;;;4998115;28;20796;-87
2021/06/28 05:59:42;;;;;;;24.67;23.10;;;;;;;;;;4997914;28;20752;-88
2021/06/28 06:02:10;;;;;;;25.77;24.33;;;;;;;;;;4997475;28;20461;-88
2021/06/28 06:04:37;;;;;;;23.53;22.03;;;;;;;;;;4997632;28;20467;-87
2021/06/28 06:07:05;;;;;;;24.10;22.80;;;;;;;;;;4997875;28;20436;-87
2021/06/28 06:09:32;;;;;;;23.93;22.63;;;;;;;;;;4998029;28;20428;-87
2021/06/28 06:11:59;;;;;;;24.53;23.13;;;;;;;;;;4997631;28;20431;-87
2021/06/28 06:14:27;;;;;;;25.80;24.20;;;;;;;;;;4997754;28;20456;-87
2021/06/28 06:16:55;;;;;;;25.63;24.23;;;;;;;;;;4997474;28;20457;-87
2021/06/28 06:19:23;;;;;;;25.13;23.63;;;;;;;;;;4997304;28;20411;-87
2021/06/28 06:21:50;;;;;;;24.40;23.00;;;;;;;;;;4997517;28;20484;-88
2021/06/28 06:24:19;;;;;;;25.27;23.50;;;;;;;;;;4997718;28;20437;-87
2021/06/28 06:26:46;;;;;;;24.07;22.77;;;;;;;;;;4997102;28;20519;-87
2021/06/28 06:29:14;;;;;;;24.23;22.87;;;;;;;;;;4997212;28;20914;-88
2021/06/28 06:31:41;;;;;;;23.60;22.30;;;;;;;;;;4997024;28;20420;-87
2021/06/28 06:34:10;;;;;;;25.60;24.10;;;;;;;;;;4997383;28;20447;-87
2021/06/28 06:36:37;;;;;;;27.53;25.73;;;;;;;;;;4997209;28;20488;-87
2021/06/28 06:39:05;;;;;;;24.33;22.90;;;;;;;;;;4996902;28;20441;-87
2021/06/28 06:41:32;;;;;;;24.50;22.90;;;;;;;;;;4997007;28;20885;-87
2021/06/28 06:44:00;;;;;;;24.73;23.33;;;;;;;;;;4997951;28;20788;-86
2021/06/28 06:46:27;;;;;;;25.43;24.03;;;;;;;;;;4997168;28;20914;-94
2021/06/28 06:48:54;;;;;;;24.87;23.33;;;;;;;;;;4996551;28;20427;-85
2021/06/28 06:51:23;;;;;;;24.30;22.90;;;;;;;;;;4996571;28;20961;-85
2021/06/28 06:53:51;;;;;;;25.93;23.30;;;;;;;;;;4996844;28;20460;-87
2021/06/28 06:56:18;;;;;;;24.90;23.30;;;;;;;;;;4996670;28;20437;-87
2021/06/28 06:58:46;;;;;;;24.03;22.60;;;;;;;;;;4979375;28;20461;-87
2021/06/28 07:01:16;;;;;;;23.60;22.30;;;;;;;;;;4997011;28;20493;-87
2021/06/28 07:03:43;;;;;;;24.70;23.30;;;;;;;;;;4980060;28;20512;-88
2021/06/28 07:06:11;;;;;;;24.63;23.10;;;;;;;;;;4996387;28;20412;-88
2021/06/28 07:08:39;;;;;;;23.97;22.57;;;;;;;;;;4996434;28;20419;-88
2021/06/28 07:11:11;;;;;;;24.60;23.30;;;;;;;;;;4996781;28;20420;-88
2021/06/28 07:13:38;;;;;;;24.13;22.73;;;;;;;;;;4979318;28;20450;-89
2021/06/28 07:16:07;;;;;;;23.53;22.23;;;;;;;;;;4979465;28;20427;-88
2021/06/28 07:18:34;;;;;;;24.43;22.90;;;;;;;;;;4996361;28;20412;-86
2021/06/28 07:21:02;;;;;;;24.27;22.97;;;;;;;;;;4996525;28;20412;-87
2021/06/28 07:23:30;;;;;;;25.00;23.60;;;;;;;;;;4995448;28;20496;-86
2021/06/28 07:25:59;;;;;;;23.83;22.47;;;;;;;;;;4996026;28;20431;-87
2021/06/28 07:28:28;;;;;;;25.30;23.90;;;;;;;;;;4996603;28;20427;-89
2021/06/28 07:30:57;;;;;;;23.97;22.60;;;;;;;;;;4995903;28;20522;-85
2021/06/28 07:33:25;;;;;;;24.37;22.87;;;;;;;;;;4979256;28;20481;-89
2021/06/28 07:35:52;;;;;;;24.63;23.23;;;;;;;;;;4996213;28;20419;-89
2021/06/28 07:38:19;;;;;;;25.33;23.67;;;;;;;;;;4996060;28;20434;-84
2021/06/28 07:40:47;;;;;;;25.87;24.47;;;;;;;;;;4995479;28;20450;-85
2021/06/28 07:43:17;;;;;;;25.40;24.00;;;;;;;;;;4995504;28;20984;-85
2021/06/28 07:45:44;;;;;;;25.37;23.97;;;;;;;;;;4995539;28;20500;-84
2021/06/28 07:48:11;;;;;;;25.30;23.90;;;;;;;;;;4994875;28;20420;-84
2021/06/28 07:50:39;;;;;;;26.70;25.30;;;;;;;;;;4995484;28;20448;-84
2021/06/28 07:53:06;;;;;;;26.00;24.60;;;;;;;;;;4995175;28;20420;-84
2021/06/28 07:55:33;;;;;;;25.13;23.63;;;;;;;;;;4994583;28;20423;-88
2021/06/28 07:58:01;;;;;;;25.60;24.10;;;;;;;;;;4995731;28;20756;-88
2021/06/28 08:00:30;;;;;;;25.50;24.10;;;;;;;;;;4995791;28;20441;-90
2021/06/28 08:02:57;;;;;;;25.30;23.80;;;;;;;;;;4995305;28;20950;-87
2021/06/28 08:05:24;;;;;;;26.53;24.93;;;;;;;;;;4996772;28;20412;-90
2021/06/28 08:07:52;;;;;;;25.83;24.33;;;;;;;;;;4995746;28;20419;-91
2021/06/28 08:10:19;;;;;;;25.90;24.23;;;;;;;;;;4995566;28;20458;-92
2021/06/28 08:12:49;;;;;;;25.70;24.20;;;;;;;;;;4995469;28;20935;-92
2021/06/28 08:15:19;;;;;;;26.67;25.07;;;;;;;;;;4995650;28;20541;-94
2021/06/28 08:17:48;;;;;;;24.63;23.23;;;;;;;;;;4995519;28;20450;-94
2021/06/28 08:20:15;;;;;;;24.77;23.30;;;;;;;;;;4996166;28;20452;-94
2021/06/28 08:22:43;;;;;;;24.87;23.43;;;;;;;;;;4995217;28;20455;-94
2021/06/28 08:25:12;;;;;;;24.83;23.43;;;;;;;;;;4995397;28;20533;-95
2021/06/28 08:27:39;;;;;;;25.40;23.90;;;;;;;;;;4994241;28;20798;-94
2021/06/28 08:30:07;;;;;;;25.00;23.60;;;;;;;;;;4996041;28;20923;-95
2021/06/28 08:32:35;;;;;;;23.90;22.60;;;;;;;;;;4995611;28;20446;-95
2021/06/28 08:35:05;;;;;;;25.77;24.23;;;;;;;;;;4995227;28;20525;-95
2021/06/28 08:37:32;;;;;;;25.07;23.57;;;;;;;;;;4995261;28;20412;-95
2021/06/28 08:39:59;;;;;;;25.40;23.90;;;;;;;;;;4995658;28;20457;-94
2021/06/28 08:42:27;;;;;;;25.53;24.03;;;;;;;;;;4996360;28;20485;-95
2021/06/28 08:44:54;;;;;;;23.90;22.50;;;;;;;;;;4996470;28;20417;-95
2021/06/28 08:47:22;;;;;;;24.80;23.23;;;;;;;;;;4996553;28;20420;-94
2021/06/28 08:49:50;;;;;;;24.87;23.43;;;;;;;;;;4978385;28;20408;-95
2021/06/28 08:52:20;;;;;;;26.33;24.53;;;;;;;;;;4995800;28;20427;-88
2021/06/28 08:54:48;;;;;;;25.43;23.93;;;;;;;;;;4994699;28;20447;-87
2021/06/28 08:57:15;;;;;;;24.70;23.30;;;;;;;;;;4994669;28;20420;-87
2021/06/28 08:59:43;;;;;;;25.70;24.20;;;;;;;;;;4977827;28;20944;-88
2021/06/28 09:02:10;;;;;;;24.80;23.30;;;;;;;;;;4994696;28;20454;-88
2021/06/28 09:04:37;;;;;;;24.93;23.53;;;;;;;;;;4994418;28;20507;-88
2021/06/28 09:07:22;;;;;;;24.30;23.00;;;;;;;;;;4994720;28;20409;-87
2021/06/28 09:09:50;;;;;;;26.30;24.60;;;;;;;;;;4995076;28;20409;-87
2021/06/28 09:12:18;;;;;;;24.87;23.43;;;;;;;;;;4994830;28;20412;-88
2021/06/28 09:14:49;;;;;;;24.90;23.50;;;;;;;;;;4994944;28;20462;-88
2021/06/28 09:17:26;;;;;;;24.50;23.10;;;;;;;;;;4994471;28;20441;-88
2021/06/28 09:20:12;;;;;;;24.77;23.17;;;;;;;;;;4994877;28;20438;-88
2021/06/28 09:22:41;;;;;;;25.23;23.73;;;;;;;;;;4994451;28;20452;-87
2021/06/28 09:25:09;;;;;;;23.73;22.43;;;;;;;;;;4994858;28;20447;-88
2021/06/28 09:27:43;;;;;;;25.63;24.13;;;;;;;;;;4994865;28;20799;-88
2021/06/28 09:30:19;;;;;;;25.93;24.37;;;;;;;;;;4994736;28;20420;-88
2021/06/28 09:32:53;;;;;;;24.83;23.33;;;;;;;;;;4994349;28;20444;-88
2021/06/28 09:35:29;;;;;;;24.77;23.27;;;;;;;;;;4977458;28;20883;-87
2021/06/28 09:37:58;;;;;;;24.57;22.97;;;;;;;;;;4994353;28;20409;-87
2021/06/28 09:40:27;;;;;;;23.57;22.10;;;;;;;;;;4977410;28;20421;-88
2021/06/28 09:42:54;;;;;;;25.50;23.70;;;;;;;;;;4994322;28;20454;-88
2021/06/28 09:45:24;;;;;;;24.60;23.20;;;;;;;;;;4995697;28;20478;-88
2021/06/28 09:47:51;;;;;;;26.33;24.73;;;;;;;;;;4998134;28;20428;-88
2021/06/28 09:50:20;;;;;;;25.90;24.13;;;;;;;;;;4998095;28;20964;-88
2021/06/28 09:52:50;;;;;;;26.00;24.17;;;;;;;;;;4998074;28;20879;-86
2021/06/28 09:55:21;;;;;;;25.57;24.07;;;;;;;;;;4997845;28;20984;-86
2021/06/28 09:58:04;;;;;;;26.17;24.57;;;;;;;;;;4997945;28;20530;-86
2021/06/28 10:00:32;;;;;;;26.63;24.80;;;;;;;;;;4998082;28;20781;-87
2021/06/28 10:02:59;;;;;;;26.10;24.60;;;;;;;;;;4997588;28;20464;-87
2021/06/28 10:05:30;;;;;;;27.03;25.33;;;;;;;;;;4997535;28;20404;-87
2021/06/28 10:07:58;;;;;;;26.03;24.43;;;;;;;;;;4997907;28;20439;-87
2021/06/28 10:10:28;;;;;;;26.60;24.90;;;;;;;;;;4998204;28;20412;-87
2021/06/28 10:13:08;;;;;;;27.07;25.20;;;;;;;;;;4997611;28;20444;-87
2021/06/28 10:15:37;;;;;;;26.60;25.10;;;;;;;;;;4997416;28;20472;-87
2021/06/28 10:18:05;;;;;;;28.43;26.73;;;;;;;;;;4997763;28;20454;-87
2021/06/28 10:20:33;;;;;;;27.67;25.90;;;;;;;;;;4997882;28;20415;-87
2021/06/28 10:23:01;;;;;;;29.80;27.90;;;;;;;;;;4997077;28;20480;-87
2021/06/28 10:25:30;;;;;;;27.00;25.40;;;;;;;;;;4997126;28;20433;-87
2021/06/28 10:27:58;;;;;;;27.07;25.20;;;;;;;;;;4997157;28;20425;-87
2021/06/28 10:30:26;;;;;;;27.63;25.93;;;;;;;;;;4997475;28;20418;-87
2021/06/28 10:32:58;;;;;;;26.30;24.70;;;;;;;;;;4997432;28;20441;-87
2021/06/28 10:35:28;;;;;;;26.27;24.57;;;;;;;;;;4997127;28;20859;-86
2021/06/28 10:37:55;;;;;;;26.20;24.70;;;;;;;;;;4997290;28;20449;-87
2021/06/28 10:40:25;;;;;;;26.57;24.90;;;;;;;;;;4997479;28;20413;-88
2021/06/28 10:42:54;;;;;;;27.37;25.27;;;;;;;;;;4997200;28;20420;-87
2021/06/28 10:45:36;;;;;;;27.37;25.47;;;;;;;;;;4997126;28;20434;-86
2021/06/28 10:48:08;;;;;;;26.07;24.47;;;;;;;;;;4997063;28;20410;-88
2021/06/28 10:50:50;;;;;;;28.30;26.70;;;;;;;;;;4996699;28;20446;-87
2021/06/28 10:53:18;;;;;;;26.10;24.60;;;;;;;;;;4979528;28;20497;-88
2021/06/28 10:55:45;;;;;;;27.27;25.57;;;;;;;;;;4997028;28;20776;-87
2021/06/28 10:58:27;;;;;;;27.77;26.03;;;;;;;;;;4979124;28;20417;-87
2021/06/28 11:01:02;;;;;;;28.77;27.10;;;;;;;;;;4996915;28;20417;-88
2021/06/28 11:03:32;;;;;;;29.37;27.50;;;;;;;;;;4996655;28;20498;-87
2021/06/28 11:06:16;;;;;;;28.80;26.97;;;;;;;;;;4996508;28;20451;-87
2021/06/28 11:08:58;;;;;;;27.10;24.77;;;;;;;;;;4996599;28;20470;-87
2021/06/28 11:11:49;;;;;;;27.00;25.20;;;;;;;;;;4996494;28;20905;-87
2021/06/28 11:14:38;;;;;;;26.23;24.63;;;;;;;;;;4973009;28;20463;-87
2021/06/28 11:17:08;;;;;;;26.97;25.47;;;;;;;;;;4996632;28;20477;-82
2021/06/28 11:20:06;;;;;;;26.03;24.40;;;;;;;;;;4996578;28;20446;-87
2021/06/28 11:22:49;;;;;;;25.60;24.20;;;;;;;;;;4898684;29;20788;-87
2021/06/28 11:25:18;;;;;;;27.27;25.67;;;;;;;;;;4898093;29;20508;-87
2021/06/28 11:27:47;;;;;;;26.80;25.10;;;;;;;;;;4898653;29;20463;-87
2021/06/28 11:30:21;;;;;;;27.53;26.03;;;;;;;;;;4898643;29;20441;-87
2021/06/28 11:32:59;;;;;;;26.80;25.20;;;;;;;;;;4898729;29;20447;-88
2021/06/28 11:35:39;;;;;;;25.90;24.33;;;;;;;;;;4898425;29;20454;-87
2021/06/28 11:38:14;;;;;;;26.23;24.73;;;;;;;;;;4898420;29;20531;-87
2021/06/28 11:40:42;;;;;;;26.43;24.93;;;;;;;;;;4898208;29;20888;-87
2021/06/28 11:43:10;;;;;;;28.07;26.00;;;;;;;;;;4882704;29;20458;-87
2021/06/28 11:45:52;;;;;;;26.60;24.90;;;;;;;;;;4898255;29;20813;-87
2021/06/28 11:48:35;;;;;;;27.77;26.07;;;;;;;;;;4898272;29;20429;-87
2021/06/28 11:51:12;;;;;;;26.57;24.90;;;;;;;;;;4898030;29;20446;-87
2021/06/28 11:53:40;;;;;;;27.77;26.07;;;;;;;;;;4898355;29;20420;-88
2021/06/28 11:56:19;;;;;;;27.50;25.90;;;;;;;;;;4897878;29;20452;-88
2021/06/28 11:58:52;;;;;;;27.43;25.83;;;;;;;;;;4968299;28;20468;-88
2021/06/28 12:01:22;;;;;;;28.53;26.67;;;;;;;;;;4995783;28;20419;-87
2021/06/28 12:03:49;;;;;;;27.53;25.83;;;;;;;;;;4995362;28;20882;-87
2021/06/28 12:06:17;;;;;;;27.30;25.63;;;;;;;;;;4995512;28;20421;-88
2021/06/28 12:08:45;;;;;;;28.90;27.10;;;;;;;;;;4995472;28;20432;-87
2021/06/28 12:11:12;;;;;;;27.20;25.60;;;;;;;;;;4995520;28;20425;-87
2021/06/28 12:13:41;;;;;;;29.30;27.50;;;;;;;;;;4995232;28;20429;-87
2021/06/28 12:16:19;;;;;;;28.03;26.43;;;;;;;;;;4995424;28;20772;-87
2021/06/28 12:18:48;;;;;;;27.30;25.70;;;;;;;;;;4995018;28;20424;-87
2021/06/28 12:21:27;;;;;;;28.07;26.27;;;;;;;;;;4978046;28;20901;-87
2021/06/28 12:24:04;;;;;;;28.30;26.50;;;;;;;;;;4995324;28;20449;-86
2021/06/28 12:26:32;;;;;;;27.00;25.40;;;;;;;;;;4995154;28;20434;-86
2021/06/28 12:29:00;;;;;;;27.40;25.60;;;;;;;;;;4995003;28;20422;-87
2021/06/28 12:31:27;;;;;;;28.33;26.43;;;;;;;;;;4995066;28;20438;-87
2021/06/28 12:33:56;;;;;;;28.00;26.37;;;;;;;;;;4995188;28;20427;-87
2021/06/28 12:36:24;;;;;;;27.60;25.80;;;;;;;;;;4994826;28;20455;-87
2021/06/28 12:38:59;;;;;;;28.27;26.67;;;;;;;;;;4995266;28;20416;-87
2021/06/28 12:41:27;;;;;;;27.97;26.37;;;;;;;;;;4994917;28;20441;-86
2021/06/28 12:43:54;;;;;;;29.23;27.43;;;;;;;;;;4995677;28;20502;-87
2021/06/28 12:46:22;;;;;;;27.50;25.90;;;;;;;;;;4994698;28;20447;-87
2021/06/28 12:48:50;;;;;;;28.87;27.17;;;;;;;;;;4977702;28;20426;-87
2021/06/28 12:51:22;;;;;;;27.97;26.37;;;;;;;;;;4995035;28;20515;-88
2021/06/28 12:53:49;;;;;;;29.00;27.33;;;;;;;;;;4995025;28;20463;-88
2021/06/28 12:56:19;;;;;;;27.63;26.03;;;;;;;;;;4994564;28;20453;-88
2021/06/28 12:58:51;;;;;;;29.13;27.53;;;;;;;;;;4995010;28;20483;-88
2021/06/28 13:01:31;;;;;;;28.60;26.80;;;;;;;;;;4977810;28;20456;-88
2021/06/28 13:04:13;;;;;;;27.60;26.00;;;;;;;;;;4994525;28;20473;-87
2021/06/28 13:06:41;;;;;;;27.63;26.00;;;;;;;;;;4994616;28;20466;-88
2021/06/28 13:09:13;;;;;;;28.03;26.23;;;;;;;;;;4994823;28;20418;-86
2021/06/28 13:11:46;;;;;;;28.27;26.40;;;;;;;;;;4994909;28;20492;-89
2021/06/28 13:14:23;;;;;;;28.93;27.23;;;;;;;;;;4994681;28;20522;-89
2021/06/28 13:17:02;;;;;;;28.13;26.53;;;;;;;;;;4994776;28;20430;-89
2021/06/28 13:19:30;;;;;;;28.40;26.70;;;;;;;;;;4994744;28;20416;-89
2021/06/28 13:22:00;;;;;;;28.60;26.83;;;;;;;;;;4998344;28;20456;-89
2021/06/28 13:24:28;;;;;;;28.20;26.60;;;;;;;;;;4998511;28;20452;-89
2021/06/28 13:26:59;;;;;;;28.23;26.63;;;;;;;;;;4998312;28;20440;-89
2021/06/28 13:29:31;;;;;;;28.70;26.90;;;;;;;;;;4998932;28;20438;-89
2021/06/28 13:32:00;;;;;;;28.33;26.73;;;;;;;;;;4998670;28;20518;-89
2021/06/28 13:34:28;;;;;;;28.40;26.80;;;;;;;;;;4998702;28;20426;-90
2021/06/28 13:37:09;;;;;;;28.10;26.50;;;;;;;;;;4998531;28;20778;-89
2021/06/28 13:39:42;;;;;;;28.93;26.90;;;;;;;;;;4998751;28;20418;-89
2021/06/28 13:42:19;;;;;;;27.13;25.50;;;;;;;;;;4981201;28;20435;-89
2021/06/28 13:44:59;;;;;;;28.43;26.73;;;;;;;;;;4998031;28;20827;-89
2021/06/28 13:47:27;;;;;;;27.77;25.97;;;;;;;;;;4998167;28;20803;-89
2021/06/28 13:49:55;;;;;;;27.77;26.17;;;;;;;;;;4998032;28;20513;-89
2021/06/28 13:52:24;;;;;;;27.70;26.00;;;;;;;;;;4998087;28;20963;-89
2021/06/28 13:54:51;;;;;;;27.80;26.20;;;;;;;;;;4998149;28;20421;-90
2021/06/28 13:57:19;;;;;;;27.87;26.20;;;;;;;;;;4998032;28;20412;-89
2021/06/28 13:59:46;;;;;;;26.47;24.97;;;;;;;;;;4997725;28;20922;-89
2021/06/28 14:02:14;;;;;;;27.80;26.00;;;;;;;;;;4997977;28;20762;-89
2021/06/28 14:04:41;;;;;;;28.00;26.20;;;;;;;;;;4997438;28;20488;-89
2021/06/28 14:07:08;;;;;;;28.00;26.30;;;;;;;;;;4997641;28;20421;-88
2021/06/28 14:09:37;;;;;;;27.90;26.30;;;;;;;;;;4998408;28;20507;-89
2021/06/28 14:12:07;;;;;;;27.83;26.20;;;;;;;;;;4998690;28;20913;-89
2021/06/28 14:14:34;;;;;;;28.10;26.50;;;;;;;;;;4997444;28;20540;-89
2021/06/28 14:17:01;;;;;;;27.60;26.00;;;;;;;;;;4997666;28;20444;-89
2021/06/28 14:19:29;;;;;;;27.37;25.87;;;;;;;;;;4997636;28;20446;-89
2021/06/28 14:21:56;;;;;;;26.40;24.70;;;;;;;;;;4997706;28;20417;-89
2021/06/28 14:24:24;;;;;;;26.87;25.17;;;;;;;;;;4997099;28;20490;-89
2021/06/28 14:26:53;;;;;;;26.60;25.10;;;;;;;;;;4997400;28;20413;-89
2021/06/28 14:29:20;;;;;;;29.67;27.87;;;;;;;;;;4997310;28;20456;-89